Pagrindinis puslapis
METAR-TAF:

METAR-TAF

Oro uostai :

Tarptautinis Vilniaus oro uostas

Vilnius, Lietuva

platuma: 54-38N, ilguma: 025-06E, Aukštis: 162 m

Dabartinis oras

Ataskaita buvo paskelbta 11 minutes, ne 08:50 UTC
Vėjas 7 kt iš Pietų
Temperatūra 14°C
Drėgmė 72%
Slėgis 1016 hPa
Matomumas 10 km arba daugiau
nėra debesų žemiau 1500 m ir nėra kamuolinių lietaus debesų

METAR: EYVI 180850Z 17007KT CAVOK 14/09 Q1016 NOSIG

Laikas: 12:01 (09:01 UTC)

Prognozė

Ataskaita buvo paskelbta 3 valandos ir 58 minutes, ne 05:03 UTC
Prognozė galioja nuo 18 metu 06 UTC su 19 metu 06 UTC
Vėjas 10 kt iš Pietų
Matomumas: 9000 m
Laikinai
nuo 19 metu 00 UTC su 19 metu 06 UTC
Matomumas: 3000 m
Išsisklaidę debesys ne aukštis 500 ft
rūkana

TAF: EYVI 180503Z 1806/1906 18010KT 9000 NSC TEMPO 1900/1906 3000 BR SCT005

Orai ataskaitas ir orų prognozės (METAR, TAF).

turimą stotys yra geltonos ir raudonos taškus žemėlapyje.

Perkelti pele per norėdami pamatyti stoties vardą.

Tada spustelėkite, norėdami matyti oro stebėjimo ir prognozės.

Norėdami pakeisti žemėlapį: spustelėkite ant žalios mygtukų su juodo kryžiaus žemyn,; žalią mygtuką su brūkšneliu, jei norite nutolinti; arba žalių rodyklių gretimoms žemėlapius.


METAR-TAF: